ARCK1: Arkansas Riv, ARk City, KS

Data processed at Sun Sep 23 2018 22:02


All information presented herein is the property of the government of the United States of America and may be revised or deleted at any time without prior notice.
Dissemination of this information without the expressed written consent of the Public Affairs Office, Tulsa District U.S. Army Corps of Engineers is strictly prohibited.
These data are gathered electronically and, as presented, have not undergone any form of quality control. These data are not guaranteed to be valid or correct.
Go to home page.
Go to station list.
Go to home page.

Upstream stations:

Downstream station:
Previous Day
Next Day
Current Day
    
SHEF ID:       ARCK1     ARKANSAS R AT ARKANSAS CITY, KS
STATION TYPE:  

               PRECIP     STAGE  RIV-FLOW  BAT-LOAD
                   in        ft       cfs      volt
              Ccp-Rev   Ccp-Rev   Ccp-Rev   Ccp-Rev
(US/Central)
09/23 00:00      0.00      4.26       854     12.25
09/23 01:00      0.00      4.24       838     12.17
09/23 02:00      0.00      4.22       822     12.17
09/23 03:00      0.00      4.20       806     12.17
09/23 04:00      0.00      4.19       798     12.17
09/23 05:00      0.00      4.17       782     12.17
09/23 06:00      0.00      4.16       774     12.09
09/23 07:00      0.00      4.15       767     12.09
09/23 08:00      0.00      4.14       759     12.09
09/23 09:00      0.00      4.13       751     12.09
09/23 10:00      0.00      4.11       736     12.09
09/23 11:00      0.00      4.10       729     12.17
09/23 12:00      0.00      4.11       736     12.33
09/23 13:00      0.00      4.13       751     12.65
09/23 14:00      0.00      4.15       767     13.05
09/23 15:00      0.00      4.18       790     12.89
09/23 16:00      0.00      4.22       822     13.13
09/23 17:00      0.00      4.26       854     13.53
09/23 18:00      0.00      4.32       904     13.29
09/23 19:00      0.00      4.38       955     12.65
09/23 20:00      0.00      4.45      1016     12.33
09/23 21:00      0.00      4.50      1061     12.33
09/23 22:00      ----      ----      ----      ----
09/23 23:00      ----      ----      ----      ----